Time;durP1;ratioP1;P1;durP2;ratioP2;P2;SDS_P1;SDS_P2;PMS_P1;PMS_P2;Temp;Humidity;BMP_temperature;BMP_pressure;BME280_temperature;BME280_humidity;BME280_pressure;Samples;Min_cycle;Max_cycle;Signal;HPM_P1;HPM_P2
2022/10/06 00:00:36;;;;;;;7.53;0.95;;;13.10;99.90;;;;;;5058595;28;20054;-70
2022/10/06 00:03:02;;;;;;;6.78;0.88;;;13.20;99.90;;;;;;5043892;28;20056;-71
2022/10/06 00:05:28;;;;;;;7.13;0.90;;;13.10;99.90;;;;;;5053668;28;20034;-71
2022/10/06 00:07:54;;;;;;;6.20;0.95;;;13.10;99.90;;;;;;5046711;28;20029;-71
2022/10/06 00:10:20;;;;;;;5.18;0.60;;;13.10;99.90;;;;;;5053512;28;20087;-71
2022/10/06 00:12:48;;;;;;;4.53;0.77;;;13.10;99.90;;;;;;5047829;28;20045;-71
2022/10/06 00:15:17;;;;;;;4.95;0.77;;;13.00;99.90;;;;;;5044989;28;20046;-71
2022/10/06 00:17:43;;;;;;;6.60;0.50;;;13.00;99.90;;;;;;5048622;28;20111;-70
2022/10/06 00:20:10;;;;;;;3.95;0.70;;;12.90;99.90;;;;;;5049264;28;20049;-71
2022/10/06 00:22:39;;;;;;;4.07;0.47;;;12.90;99.90;;;;;;5047156;28;20072;-71
2022/10/06 00:25:06;;;;;;;5.15;0.70;;;12.80;99.90;;;;;;5047737;28;20044;-71
2022/10/06 00:27:46;;;;;;;6.60;0.93;;;12.80;99.90;;;;;;5048787;28;20064;-70
2022/10/06 00:30:15;;;;;;;8.55;0.85;;;12.70;99.90;;;;;;5044222;28;20029;-70
2022/10/06 00:32:48;;;;;;;8.38;0.88;;;12.70;99.90;;;;;;5044422;28;20071;-70
2022/10/06 00:35:14;;;;;;;4.90;0.60;;;12.60;99.90;;;;;;5060217;28;20060;-70
2022/10/06 00:37:39;;;;;;;7.25;0.90;;;12.60;99.90;;;;;;5042263;28;20072;-70
2022/10/06 00:40:08;;;;;;;2.97;0.85;;;12.50;99.90;;;;;;5046035;28;20037;-69
2022/10/06 00:43:07;;;;;;;7.20;0.82;;;12.50;99.90;;;;;;5028881;28;20362;-70
2022/10/06 00:45:37;;;;;;;5.95;0.90;;;12.50;99.90;;;;;;5042231;28;20140;-70
2022/10/06 00:48:08;;;;;;;3.50;0.50;;;12.50;99.90;;;;;;5042956;28;20148;-70
2022/10/06 00:50:35;;;;;;;7.20;0.70;;;12.50;99.90;;;;;;5046734;28;20059;-70
2022/10/06 00:53:02;;;;;;;8.68;0.75;;;12.40;99.90;;;;;;5043200;28;20045;-70
2022/10/06 00:55:27;;;;;;;5.53;1.13;;;12.40;99.90;;;;;;5044007;28;20033;-70
2022/10/06 00:57:54;;;;;;;7.80;0.85;;;12.40;99.90;;;;;;5048951;28;20098;-70
2022/10/06 01:00:19;;;;;;;9.00;1.10;;;12.30;99.90;;;;;;5051467;28;20057;-70
2022/10/06 01:02:57;;;;;;;7.82;0.90;;;12.20;99.90;;;;;;5048298;28;20056;-69
2022/10/06 01:05:28;;;;;;;6.65;1.40;;;12.20;99.90;;;;;;5046986;28;20650;-69
2022/10/06 01:07:54;;;;;;;6.65;1.08;;;12.20;99.90;;;;;;5049351;28;20113;-69
2022/10/06 01:10:20;;;;;;;11.75;1.48;;;12.20;99.90;;;;;;5044076;28;20037;-69
2022/10/06 01:12:46;;;;;;;5.43;1.00;;;12.20;99.90;;;;;;5043742;28;20131;-69
2022/10/06 01:15:12;;;;;;;11.38;1.33;;;12.10;99.90;;;;;;5028940;28;20096;-69
2022/10/06 01:17:51;;;;;;;10.65;0.98;;;12.00;99.90;;;;;;5053653;28;20461;-69
2022/10/06 01:20:18;;;;;;;9.80;1.20;;;12.00;99.90;;;;;;5047178;28;20045;-69
2022/10/06 01:22:47;;;;;;;9.23;1.45;;;12.00;99.90;;;;;;5047312;28;20034;-69
2022/10/06 01:25:15;;;;;;;11.48;1.45;;;11.90;99.90;;;;;;5045892;28;20499;-70
2022/10/06 01:27:44;;;;;;;12.57;1.10;;;11.80;99.90;;;;;;5048019;28;20045;-69
2022/10/06 01:30:15;;;;;;;13.82;1.30;;;11.80;99.90;;;;;;5045009;28;20040;-69
2022/10/06 01:32:41;;;;;;;10.88;1.30;;;11.80;99.90;;;;;;5049818;28;20052;-69
2022/10/06 01:35:08;;;;;;;10.23;1.08;;;11.70;99.90;;;;;;5045397;28;20072;-69
2022/10/06 01:37:34;;;;;;;8.25;1.25;;;11.70;99.90;;;;;;5050077;28;20121;-70
2022/10/06 01:39:59;;;;;;;9.63;0.77;;;11.60;99.90;;;;;;5033314;28;20175;-69
2022/10/06 01:42:25;;;;;;;8.55;1.30;;;11.60;99.90;;;;;;5046684;28;20085;-69
2022/10/06 01:44:51;;;;;;;6.50;1.05;;;11.60;99.90;;;;;;5048439;28;20102;-70
2022/10/06 01:47:16;;;;;;;12.55;1.55;;;11.50;99.90;;;;;;5047512;28;20072;-69
2022/10/06 01:49:42;;;;;;;7.22;1.00;;;11.50;99.90;;;;;;5043751;28;20045;-69
2022/10/06 01:52:08;;;;;;;11.25;1.45;;;11.40;99.90;;;;;;5041528;28;20044;-69
2022/10/06 01:54:34;;;;;;;5.38;0.93;;;11.30;99.90;;;;;;5048711;28;20044;-69
2022/10/06 01:56:59;;;;;;;8.23;1.08;;;11.30;99.90;;;;;;5046275;28;20033;-69
2022/10/06 01:59:25;;;;;;;8.77;1.13;;;11.30;99.90;;;;;;5049771;28;20037;-69
2022/10/06 02:01:51;;;;;;;8.70;1.17;;;11.20;99.90;;;;;;5041783;28;20379;-69
2022/10/06 02:04:17;;;;;;;13.43;1.77;;;11.20;99.90;;;;;;5046126;28;20135;-69
2022/10/06 02:06:43;;;;;;;7.25;1.13;;;11.20;99.90;;;;;;5045584;28;20388;-69
2022/10/06 02:09:08;;;;;;;14.75;1.45;;;11.10;99.90;;;;;;5044623;28;20041;-69
2022/10/06 02:11:34;;;;;;;7.82;1.08;;;11.10;99.90;;;;;;5045664;28;20091;-70
2022/10/06 02:14:00;;;;;;;8.40;1.10;;;11.10;99.90;;;;;;5049836;28;20481;-70
2022/10/06 02:16:27;;;;;;;12.15;1.25;;;11.00;99.90;;;;;;5050947;28;20044;-70
2022/10/06 02:18:53;;;;;;;11.55;1.67;;;11.00;99.90;;;;;;5045500;28;20045;-70
2022/10/06 02:21:21;;;;;;;10.80;1.33;;;11.00;99.90;;;;;;5047388;28;20040;-69
2022/10/06 02:23:47;;;;;;;9.32;1.30;;;11.00;99.90;;;;;;5044901;28;20056;-70
2022/10/06 02:26:16;;;;;;;9.02;0.90;;;11.00;99.90;;;;;;5045702;28;20049;-70
2022/10/06 02:28:45;;;;;;;11.43;2.97;;;10.90;99.90;;;;;;5043935;28;20350;-70
2022/10/06 02:31:12;;;;;;;9.45;1.13;;;10.90;99.90;;;;;;5045475;28;20052;-70
2022/10/06 02:33:39;;;;;;;8.90;1.08;;;10.90;99.90;;;;;;5048961;28;20044;-70
2022/10/06 02:36:05;;;;;;;8.85;1.23;;;10.90;99.90;;;;;;5053046;28;20037;-70
2022/10/06 02:38:31;;;;;;;9.50;1.20;;;10.90;99.90;;;;;;5042642;28;20075;-70
2022/10/06 02:40:58;;;;;;;8.13;1.10;;;10.90;99.90;;;;;;5044506;28;20046;-70
2022/10/06 02:43:27;;;;;;;11.05;1.40;;;10.80;99.90;;;;;;5045221;28;20041;-69
2022/10/06 02:45:58;;;;;;;7.15;0.98;;;10.80;99.90;;;;;;5049432;28;20049;-69
2022/10/06 02:48:25;;;;;;;10.90;1.25;;;10.80;99.90;;;;;;5042780;28;20033;-69
2022/10/06 02:51:00;;;;;;;9.63;0.98;;;10.80;99.90;;;;;;5047963;28;20033;-69
2022/10/06 02:53:26;;;;;;;9.98;1.10;;;10.80;99.90;;;;;;5045112;28;20041;-69
2022/10/06 02:56:00;;;;;;;5.28;1.08;;;10.80;99.90;;;;;;5046893;28;20037;-70
2022/10/06 02:58:28;;;;;;;8.35;1.40;;;10.80;99.90;;;;;;5047601;28;20101;-69
2022/10/06 03:00:59;;;;;;;7.95;1.17;;;10.80;99.90;;;;;;5031332;28;20495;-69
2022/10/06 03:03:25;;;;;;;11.27;1.48;;;10.80;99.90;;;;;;5043621;28;20076;-69
2022/10/06 03:06:05;;;;;;;8.20;1.35;;;10.70;99.90;;;;;;5046588;28;20041;-69
2022/10/06 03:08:32;;;;;;;6.90;0.90;;;10.70;99.90;;;;;;5040725;28;20109;-69
2022/10/06 03:11:02;;;;;;;8.50;1.10;;;10.70;99.90;;;;;;5046448;28;20097;-69
2022/10/06 03:13:29;;;;;;;8.20;1.25;;;10.60;99.90;;;;;;5044290;28;20036;-70
2022/10/06 03:15:55;;;;;;;8.10;1.50;;;10.60;99.90;;;;;;5047761;28;20044;-69
2022/10/06 03:18:21;;;;;;;9.40;1.08;;;10.50;99.90;;;;;;5053195;28;20076;-69
2022/10/06 03:20:48;;;;;;;9.75;1.25;;;10.50;99.90;;;;;;5049379;28;20045;-69
2022/10/06 03:23:13;;;;;;;10.50;1.00;;;10.50;99.90;;;;;;5040545;28;20054;-69
2022/10/06 03:25:39;;;;;;;7.65;0.85;;;10.50;99.90;;;;;;5043707;28;20119;-69
2022/10/06 03:28:05;;;;;;;9.98;1.33;;;10.40;99.90;;;;;;5041271;28;20041;-69
2022/10/06 03:30:31;;;;;;;14.68;2.00;;;10.40;99.90;;;;;;5046219;28;20040;-69
2022/10/06 03:33:00;;;;;;;8.63;1.10;;;10.40;99.90;;;;;;5045079;28;20037;-69
2022/10/06 03:35:26;;;;;;;11.40;0.95;;;10.40;99.90;;;;;;5050337;28;20045;-69
2022/10/06 03:37:52;;;;;;;6.97;1.10;;;10.40;99.90;;;;;;5048253;28;20448;-69
2022/10/06 03:40:18;;;;;;;10.18;1.35;;;10.30;99.90;;;;;;5047617;28;20064;-70
2022/10/06 03:42:43;;;;;;;8.68;1.10;;;10.30;99.90;;;;;;5049125;28;20049;-69
2022/10/06 03:45:09;;;;;;;7.80;1.20;;;10.30;99.90;;;;;;5041647;28;20698;-69
2022/10/06 03:47:35;;;;;;;9.52;1.60;;;10.30;99.90;;;;;;5046609;28;20431;-69
2022/10/06 03:50:01;;;;;;;11.68;1.45;;;10.30;99.90;;;;;;5046533;28;20037;-69
2022/10/06 03:52:26;;;;;;;10.27;2.40;;;10.30;99.90;;;;;;5050971;28;20043;-70
2022/10/06 03:54:52;;;;;;;10.63;1.33;;;10.30;99.90;;;;;;5051282;28;20045;-70
2022/10/06 03:57:18;;;;;;;9.98;1.30;;;10.30;99.90;;;;;;5049117;28;20034;-69
2022/10/06 03:59:44;;;;;;;11.05;1.63;;;10.30;99.90;;;;;;5042314;28;20040;-70
2022/10/06 04:02:10;;;;;;;9.18;1.75;;;10.30;99.90;;;;;;5024944;28;20421;-70
2022/10/06 04:04:37;;;;;;;7.45;0.95;;;10.30;99.90;;;;;;5044805;28;20382;-70
2022/10/06 04:07:02;;;;;;;8.10;0.98;;;10.30;99.90;;;;;;5048175;28;20127;-70
2022/10/06 04:09:28;;;;;;;12.23;1.73;;;10.20;99.90;;;;;;5046011;28;20034;-70
2022/10/06 04:11:54;;;;;;;9.77;1.35;;;10.20;99.90;;;;;;5048161;28;20362;-70
2022/10/06 04:14:20;;;;;;;8.23;0.95;;;10.20;99.90;;;;;;5045603;28;20107;-70
2022/10/06 04:16:48;;;;;;;9.55;1.33;;;10.20;99.90;;;;;;5047524;28;20033;-69
2022/10/06 04:19:14;;;;;;;10.13;1.20;;;10.20;99.90;;;;;;5047659;28;20079;-70
2022/10/06 04:21:42;;;;;;;12.02;1.35;;;10.20;99.90;;;;;;5044202;28;20041;-70
2022/10/06 04:24:09;;;;;;;10.77;1.25;;;10.20;99.90;;;;;;5048403;28;20510;-70
2022/10/06 04:26:38;;;;;;;10.75;1.20;;;10.10;99.90;;;;;;5043835;28;20389;-69
2022/10/06 04:29:04;;;;;;;11.90;1.38;;;10.10;99.90;;;;;;5046798;28;20041;-70
2022/10/06 04:31:36;;;;;;;10.48;1.20;;;10.20;99.90;;;;;;5041733;28;20052;-70
2022/10/06 04:34:04;;;;;;;12.82;1.48;;;10.20;99.90;;;;;;5044737;28;20045;-69
2022/10/06 04:36:32;;;;;;;11.82;1.55;;;10.20;99.90;;;;;;5047847;28;20120;-70
2022/10/06 04:39:00;;;;;;;11.48;1.33;;;10.20;99.90;;;;;;5051000;28;20108;-70
2022/10/06 04:41:31;;;;;;;10.80;1.35;;;10.20;99.90;;;;;;5052162;28;20041;-70
2022/10/06 04:43:57;;;;;;;13.07;1.60;;;10.10;99.90;;;;;;5045484;28;20041;-70
2022/10/06 04:46:24;;;;;;;7.97;1.40;;;10.10;99.90;;;;;;5053277;28;20052;-70
2022/10/06 04:48:53;;;;;;;10.35;1.33;;;10.10;99.90;;;;;;5049249;28;20745;-70
2022/10/06 04:51:20;;;;;;;9.80;1.35;;;10.10;99.90;;;;;;5049504;28;20045;-69
2022/10/06 04:53:47;;;;;;;9.38;1.50;;;10.00;99.90;;;;;;5030068;28;20056;-70
2022/10/06 04:56:32;;;;;;;14.48;1.80;;;10.00;99.90;;;;;;5050067;28;20064;-69
2022/10/06 04:58:58;;;;;;;10.18;1.30;;;10.00;99.90;;;;;;5049972;28;20120;-69
2022/10/06 05:01:30;;;;;;;12.48;1.65;;;9.90;99.90;;;;;;5049018;28;20093;-69
2022/10/06 05:03:58;;;;;;;9.00;1.50;;;9.90;99.90;;;;;;5047559;28;20053;-69
2022/10/06 05:06:30;;;;;;;11.10;1.42;;;9.90;99.90;;;;;;5052753;28;20040;-69
2022/10/06 05:08:59;;;;;;;13.45;1.52;;;9.90;99.90;;;;;;5045999;28;20436;-69
2022/10/06 05:11:25;;;;;;;9.23;1.35;;;9.80;99.90;;;;;;5046263;28;20106;-69
2022/10/06 05:13:53;;;;;;;13.20;1.58;;;9.80;99.90;;;;;;5053701;28;20041;-69
2022/10/06 05:16:20;;;;;;;12.13;2.00;;;9.80;99.90;;;;;;5036641;28;20045;-69
2022/10/06 05:18:46;;;;;;;12.68;1.25;;;9.70;99.90;;;;;;5031605;28;20117;-70
2022/10/06 05:21:18;;;;;;;14.52;1.73;;;9.70;99.90;;;;;;5051162;28;20104;-69
2022/10/06 05:23:44;;;;;;;13.00;1.58;;;9.70;99.90;;;;;;5053543;28;20033;-69
2022/10/06 05:26:12;;;;;;;6.68;1.10;;;9.70;99.90;;;;;;5052901;28;20057;-69
2022/10/06 05:28:38;;;;;;;10.80;1.38;;;9.60;99.90;;;;;;5050264;28;20057;-69
2022/10/06 05:31:07;;;;;;;8.25;1.30;;;9.50;99.90;;;;;;5039170;28;20044;-70
2022/10/06 05:33:34;;;;;;;11.43;1.40;;;9.50;99.90;;;;;;5052293;28;20055;-69
2022/10/06 05:36:03;;;;;;;8.52;1.42;;;9.50;99.90;;;;;;5050762;28;20033;-69
2022/10/06 05:38:29;;;;;;;12.38;1.75;;;9.50;99.90;;;;;;5046325;28;20488;-69
2022/10/06 05:41:13;;;;;;;13.80;1.63;;;9.50;99.90;;;;;;5050249;28;20108;-69
2022/10/06 05:43:39;;;;;;;14.80;1.85;;;9.50;99.90;;;;;;5049725;28;20135;-69
2022/10/06 05:46:09;;;;;;;9.63;2.33;;;9.40;99.90;;;;;;5051823;28;20029;-70
2022/10/06 05:48:35;;;;;;;12.70;1.20;;;9.50;99.90;;;;;;5044810;28;20043;-70
2022/10/06 05:51:06;;;;;;;10.10;1.05;;;9.40;99.90;;;;;;5034908;28;20116;-70
2022/10/06 05:53:34;;;;;;;11.15;1.00;;;9.40;99.90;;;;;;5047644;28;20081;-70
2022/10/06 05:56:11;;;;;;;12.77;1.40;;;9.30;99.90;;;;;;5052447;28;20112;-70
2022/10/06 05:58:39;;;;;;;14.00;1.50;;;9.40;99.90;;;;;;5044766;28;20037;-70
2022/10/06 06:01:07;;;;;;;12.80;1.73;;;9.30;99.90;;;;;;5047746;28;20057;-70
2022/10/06 06:03:33;;;;;;;16.15;2.33;;;9.40;99.90;;;;;;5066269;28;20255;-70
2022/10/06 06:05:59;;;;;;;14.80;1.73;;;9.40;99.90;;;;;;5047346;28;20164;-70
2022/10/06 06:08:24;;;;;;;11.18;1.70;;;9.40;99.90;;;;;;5048524;28;20040;-70
2022/10/06 06:10:50;;;;;;;8.93;1.60;;;9.40;99.90;;;;;;5049297;28;20041;-70
2022/10/06 06:13:20;;;;;;;12.13;1.33;;;9.40;99.90;;;;;;5044767;28;20369;-70
2022/10/06 06:16:03;;;;;;;12.25;1.42;;;9.40;99.90;;;;;;5046890;28;20051;-70
2022/10/06 06:18:33;;;;;;;10.27;1.83;;;9.40;99.90;;;;;;5044097;28;20045;-70
2022/10/06 06:21:01;;;;;;;14.60;1.80;;;9.40;99.90;;;;;;5047975;28;20041;-70
2022/10/06 06:23:32;;;;;;;10.82;1.52;;;9.50;99.90;;;;;;5049983;28;20433;-70
2022/10/06 06:26:05;;;;;;;11.55;1.35;;;9.60;99.90;;;;;;5047932;28;20117;-70
2022/10/06 06:28:32;;;;;;;15.10;1.73;;;9.60;99.90;;;;;;5043060;28;20076;-70
2022/10/06 06:31:13;;;;;;;12.27;1.70;;;9.70;99.90;;;;;;5048100;28;20080;-70
2022/10/06 06:33:40;;;;;;;10.70;1.27;;;9.80;99.90;;;;;;5046706;28;20055;-70
2022/10/06 06:36:13;;;;;;;10.98;1.90;;;9.90;99.90;;;;;;5042394;28;20055;-70
2022/10/06 06:38:39;;;;;;;9.38;1.85;;;9.90;99.90;;;;;;5050347;28;20071;-70
2022/10/06 06:41:16;;;;;;;12.75;2.25;;;10.00;99.90;;;;;;5048338;28;20042;-70
2022/10/06 06:43:42;;;;;;;14.18;1.88;;;10.10;99.90;;;;;;5046042;28;20063;-70
2022/10/06 06:46:08;;;;;;;15.93;1.70;;;10.20;99.90;;;;;;5045327;28;20041;-70
2022/10/06 06:48:36;;;;;;;12.80;1.73;;;10.30;99.90;;;;;;5046300;28;20068;-70
2022/10/06 06:51:04;;;;;;;10.02;1.60;;;10.40;99.90;;;;;;5047083;28;20038;-70
2022/10/06 06:53:30;;;;;;;9.52;1.17;;;10.50;99.90;;;;;;5046293;28;20041;-70
2022/10/06 06:55:56;;;;;;;12.55;1.67;;;10.60;99.90;;;;;;5043533;28;20068;-70
2022/10/06 06:58:22;;;;;;;9.68;1.40;;;10.70;99.90;;;;;;5044214;28;20052;-70
2022/10/06 07:00:48;;;;;;;19.70;1.65;;;10.80;99.90;;;;;;5048006;28;20547;-71
2022/10/06 07:03:17;;;;;;;10.23;1.77;;;10.90;99.90;;;;;;5048032;28;20463;-71
2022/10/06 07:05:47;;;;;;;11.10;1.33;;;11.10;99.90;;;;;;5049264;28;20127;-71
2022/10/06 07:08:15;;;;;;;8.75;1.63;;;11.20;99.90;;;;;;5043876;28;20053;-71
2022/10/06 07:10:43;;;;;;;14.30;1.90;;;11.50;99.90;;;;;;5047264;28;20041;-70
2022/10/06 07:13:14;;;;;;;11.82;2.20;;;11.70;99.90;;;;;;5042631;28;20125;-70
2022/10/06 07:26:52;;;;;;;11.75;1.58;;;15.50;99.90;;;;;;5040477;28;20048;-71
2022/10/06 07:29:18;;;;;;;10.75;1.50;;;16.40;99.90;;;;;;5047313;28;20080;-71
2022/10/06 07:31:44;;;;;;;8.38;1.30;;;17.00;99.90;;;;;;5040257;28;20060;-71
2022/10/06 07:34:10;;;;;;;10.18;2.03;;;17.60;99.90;;;;;;5041627;28;20132;-71
2022/10/06 07:36:35;;;;;;;12.20;1.95;;;17.90;99.90;;;;;;5047434;28;20065;-71
2022/10/06 07:39:01;;;;;;;8.60;1.88;;;18.30;99.90;;;;;;5049293;28;20056;-71
2022/10/06 07:41:29;;;;;;;11.48;1.70;;;18.80;99.90;;;;;;5047031;28;20137;-72
2022/10/06 07:43:55;;;;;;;10.75;1.65;;;19.10;99.90;;;;;;5043634;28;20044;-72
2022/10/06 07:46:20;;;;;;;12.88;1.80;;;19.60;99.90;;;;;;5044265;28;20041;-72
2022/10/06 07:48:47;;;;;;;12.00;2.00;;;20.00;99.90;;;;;;5048429;28;20049;-72
2022/10/06 07:51:15;;;;;;;11.00;1.63;;;20.30;99.90;;;;;;5049831;28;20056;-72
2022/10/06 07:53:43;;;;;;;9.90;1.60;;;20.40;99.90;;;;;;5049238;28;20120;-72
2022/10/06 07:56:11;;;;;;;10.20;1.55;;;20.80;99.90;;;;;;5047827;28;20075;-72
2022/10/06 07:58:37;;;;;;;9.50;1.85;;;21.00;99.90;;;;;;5049386;28;20093;-72
2022/10/06 08:01:08;;;;;;;9.40;1.85;;;21.30;99.90;;;;;;5038889;28;20108;-73
2022/10/06 08:03:36;;;;;;;13.60;1.92;;;21.60;98.90;;;;;;5045879;28;20133;-72
2022/10/06 08:06:02;;;;;;;7.32;1.42;;;21.90;97.90;;;;;;5050011;28;20057;-73
2022/10/06 08:08:36;;;;;;;10.48;1.70;;;22.20;97.30;;;;;;5046744;28;20056;-72
2022/10/06 08:11:04;;;;;;;9.40;1.73;;;22.40;95.80;;;;;;5049414;28;20033;-73
2022/10/06 08:13:33;;;;;;;10.32;1.70;;;22.70;94.70;;;;;;5048233;28;20458;-72
2022/10/06 08:16:16;;;;;;;9.15;1.65;;;22.80;93.40;;;;;;5054385;28;20073;-72
2022/10/06 08:18:47;;;;;;;8.10;1.65;;;23.10;91.20;;;;;;5054356;28;20037;-73
2022/10/06 08:21:16;;;;;;;10.40;1.70;;;23.30;91.10;;;;;;5050032;28;20122;-72
2022/10/06 08:23:43;;;;;;;8.95;1.60;;;23.50;90.00;;;;;;5046380;28;20046;-68
2022/10/06 08:26:10;;;;;;;8.18;1.85;;;23.70;88.40;;;;;;5048790;28;20059;-68
2022/10/06 08:28:37;;;;;;;8.00;1.60;;;23.90;85.20;;;;;;5040502;28;20041;-68
2022/10/06 08:31:10;;;;;;;11.25;2.05;;;24.10;84.70;;;;;;5044784;28;20128;-70
2022/10/06 08:33:41;;;;;;;13.20;1.95;;;24.20;82.60;;;;;;5039841;28;20049;-71
2022/10/06 08:36:09;;;;;;;10.63;1.90;;;24.40;80.60;;;;;;5045769;28;20053;-69
2022/10/06 08:38:36;;;;;;;7.75;1.63;;;24.50;79.80;;;;;;5046105;28;20052;-68
2022/10/06 08:41:21;;;;;;;11.00;1.70;;;24.80;79.40;;;;;;5045407;28;20140;-72
2022/10/06 08:44:03;;;;;;;8.45;1.60;;;25.00;77.80;;;;;;5044623;28;20119;-73
2022/10/06 08:46:35;;;;;;;9.85;1.60;;;24.90;75.00;;;;;;5026565;28;20052;-73
2022/10/06 08:49:02;;;;;;;8.48;1.60;;;25.10;75.90;;;;;;5041578;28;20069;-72
2022/10/06 08:51:43;;;;;;;9.95;1.83;;;25.30;73.90;;;;;;5044520;28;20542;-73
2022/10/06 08:54:58;;;;;;;10.90;1.85;;;25.40;71.10;;;;;;5047211;28;20143;-70
2022/10/06 08:57:39;;;;;;;8.05;1.65;;;25.40;69.40;;;;;;5008523;28;20053;-70
2022/10/06 09:00:11;;;;;;;7.85;1.42;;;25.50;68.90;;;;;;5041941;28;20065;-72
2022/10/06 09:02:44;;;;;;;6.63;1.48;;;25.60;69.10;;;;;;5045747;28;20045;-70
2022/10/06 09:05:18;;;;;;;8.10;1.90;;;25.80;69.70;;;;;;5042255;28;20053;-70
2022/10/06 09:08:23;;;;;;;7.63;1.83;;;26.00;68.40;;;;;;5047710;28;20041;-70
2022/10/06 09:11:19;;;;;;;8.32;1.90;;;26.10;67.80;;;;;;5031530;28;20060;-69
2022/10/06 09:13:55;;;;;;;8.65;1.67;;;26.30;64.50;;;;;;4995962;28;20178;-69
2022/10/06 09:16:27;;;;;;;8.20;1.70;;;26.20;66.40;;;;;;5043412;28;20473;-70
2022/10/06 09:19:07;;;;;;;10.15;1.73;;;26.10;65.40;;;;;;5040223;28;20052;-68
2022/10/06 09:21:44;;;;;;;7.38;1.50;;;26.00;65.30;;;;;;5042010;28;20132;-69
2022/10/06 09:24:14;;;;;;;9.70;1.50;;;26.00;64.40;;;;;;5045402;28;20055;-67
2022/10/06 09:26:43;;;;;;;8.65;1.50;;;26.00;66.40;;;;;;5037929;28;20077;-68
2022/10/06 09:29:09;;;;;;;10.98;1.90;;;25.70;64.10;;;;;;5043602;28;20033;-68
2022/10/06 09:31:37;;;;;;;7.68;1.90;;;25.10;66.40;;;;;;5044474;28;20047;-67
2022/10/06 09:34:34;;;;;;;11.35;2.10;;;25.00;67.20;;;;;;5046974;28;20047;-68
2022/10/06 09:37:06;;;;;;;9.30;1.80;;;25.00;67.30;;;;;;5040373;28;20072;-68
2022/10/06 09:39:44;;;;;;;9.75;2.15;;;25.10;66.70;;;;;;5040742;28;20044;-68
2022/10/06 09:42:27;;;;;;;9.88;1.73;;;24.80;67.60;;;;;;5045478;28;20048;-68
2022/10/06 09:45:04;;;;;;;7.70;1.50;;;24.70;67.20;;;;;;5039938;28;20053;-68
2022/10/06 09:47:43;;;;;;;10.50;1.95;;;24.70;66.00;;;;;;5034851;28;20156;-68
2022/10/06 09:50:10;;;;;;;8.15;1.38;;;24.80;65.10;;;;;;5045220;28;20201;-68
2022/10/06 09:52:37;;;;;;;7.07;1.50;;;24.30;65.00;;;;;;5041268;28;20138;-68
2022/10/06 09:55:17;;;;;;;7.88;2.00;;;24.20;65.80;;;;;;5040221;28;20044;-68
2022/10/06 09:57:52;;;;;;;8.27;2.17;;;24.10;65.90;;;;;;5037873;28;20057;-68
2022/10/06 10:00:29;;;;;;;6.07;1.35;;;24.30;67.20;;;;;;5044842;28;20045;-68
2022/10/06 10:02:59;;;;;;;8.57;1.80;;;24.30;67.00;;;;;;5040202;28;20095;-68
2022/10/06 10:05:30;;;;;;;8.57;1.65;;;24.10;67.80;;;;;;5036439;28;20092;-68
2022/10/06 10:08:20;;;;;;;8.20;1.40;;;23.90;68.10;;;;;;5039550;28;20045;-68
2022/10/06 10:10:48;;;;;;;9.80;1.35;;;23.20;67.30;;;;;;5045441;28;20072;-68
2022/10/06 10:13:42;;;;;;;6.70;1.40;;;23.00;68.80;;;;;;5041111;28;20103;-68
2022/10/06 10:16:15;;;;;;;5.97;1.10;;;22.90;66.00;;;;;;5039168;28;20079;-68
2022/10/06 10:18:46;;;;;;;7.43;1.30;;;22.50;68.70;;;;;;5039256;28;20064;-68
2022/10/06 10:21:23;;;;;;;7.88;1.20;;;21.80;69.80;;;;;;5039648;28;20049;-68
2022/10/06 10:23:55;;;;;;;7.70;1.52;;;21.20;71.60;;;;;;5035542;28;20051;-69
2022/10/06 10:26:34;;;;;;;7.50;1.60;;;21.10;72.90;;;;;;5041529;28;20056;-69
2022/10/06 10:29:38;;;;;;;8.15;1.50;;;21.30;72.90;;;;;;5042218;28;20732;-66
2022/10/06 10:32:19;;;;;;;5.03;1.00;;;22.40;70.00;;;;;;5039935;28;20036;-67
2022/10/06 10:35:00;;;;;;;7.30;1.15;;;23.20;67.90;;;;;;5039812;28;20049;-67
2022/10/06 10:37:28;;;;;;;8.90;1.20;;;23.00;66.60;;;;;;5039828;28;20322;-66
2022/10/06 10:40:05;;;;;;;8.25;1.45;;;22.60;67.00;;;;;;5039950;28;20033;-67
2022/10/06 10:42:46;;;;;;;8.60;1.20;;;22.50;65.60;;;;;;5041681;28;20507;-67
2022/10/06 10:45:23;;;;;;;8.05;1.38;;;22.60;66.00;;;;;;5044103;28;20042;-66
2022/10/06 10:47:49;;;;;;;7.03;0.93;;;21.80;66.30;;;;;;5039115;28;20041;-67
2022/10/06 10:50:36;;;;;;;5.00;1.00;;;21.40;70.30;;;;;;5042484;28;20044;-66
2022/10/06 10:53:24;;;;;;;5.93;1.13;;;21.90;68.60;;;;;;5039996;28;20157;-66
2022/10/06 10:55:52;;;;;;;6.85;1.20;;;22.50;67.90;;;;;;5042694;28;20037;-67
2022/10/06 10:58:35;;;;;;;6.05;1.20;;;23.20;67.30;;;;;;5038411;28;20140;-67
2022/10/06 11:01:12;;;;;;;8.25;1.05;;;23.80;65.90;;;;;;5042247;28;20042;-66
2022/10/06 11:03:38;;;;;;;5.90;1.30;;;24.30;63.50;;;;;;5032169;28;20049;-67
2022/10/06 11:06:20;;;;;;;5.28;1.05;;;24.60;62.60;;;;;;5038941;28;20037;-68
2022/10/06 11:09:07;;;;;;;4.43;0.90;;;24.70;60.90;;;;;;5041511;28;20112;-69
2022/10/06 11:11:36;;;;;;;4.80;1.23;;;24.80;61.20;;;;;;5041399;28;20037;-68
2022/10/06 11:14:11;;;;;;;4.45;1.05;;;24.90;61.50;;;;;;5038388;28;20473;-68
2022/10/06 11:17:00;;;;;;;7.35;1.30;;;25.10;60.50;;;;;;5039311;28;20044;-68
2022/10/06 11:20:00;;;;;;;4.15;0.82;;;25.30;62.00;;;;;;5040750;28;20480;-68
2022/10/06 11:22:53;;;;;;;4.20;1.05;;;25.70;60.20;;;;;;5041216;28;20102;-68
2022/10/06 11:25:33;;;;;;;6.40;0.80;;;26.00;54.60;;;;;;5037836;28;20120;-68
2022/10/06 11:28:12;;;;;;;5.35;1.05;;;26.10;57.60;;;;;;5022738;28;20073;-68
2022/10/06 11:30:55;;;;;;;6.60;1.05;;;26.50;57.90;;;;;;5038191;28;20037;-68
2022/10/06 11:33:37;;;;;;;4.43;0.80;;;26.70;55.70;;;;;;5036293;28;20064;-69
2022/10/06 11:36:07;;;;;;;4.38;0.68;;;26.80;54.80;;;;;;5038287;28;20045;-69
2022/10/06 11:38:44;;;;;;;4.20;0.90;;;26.90;53.50;;;;;;5037019;28;20049;-69
2022/10/06 11:41:12;;;;;;;5.85;1.00;;;26.80;52.50;;;;;;5037946;28;20131;-68
2022/10/06 11:43:41;;;;;;;5.30;0.88;;;26.60;53.30;;;;;;5038582;28;21512;-69
2022/10/06 11:46:13;;;;;;;5.60;0.80;;;26.50;53.70;;;;;;5039547;28;20059;-70
2022/10/06 11:48:39;;;;;;;4.28;1.67;;;26.40;51.90;;;;;;5032067;28;20060;-70
2022/10/06 11:51:23;;;;;;;6.22;1.65;;;26.40;53.10;;;;;;5036001;28;20049;-71
2022/10/06 11:53:50;;;;;;;5.88;1.13;;;26.40;50.60;;;;;;5026031;28;20260;-70
2022/10/06 11:56:16;;;;;;;5.75;1.15;;;26.40;52.70;;;;;;5035113;28;20037;-71
2022/10/06 11:58:51;;;;;;;5.55;0.80;;;26.60;52.90;;;;;;5023100;28;20087;-71
2022/10/06 12:01:37;;;;;;;4.72;0.60;;;26.60;50.40;;;;;;5030912;28;20049;-71
2022/10/06 12:04:09;;;;;;;5.40;0.77;;;26.30;50.30;;;;;;5036255;28;20493;-71
2022/10/06 12:06:41;;;;;;;4.65;0.93;;;26.20;50.80;;;;;;5035830;28;20596;-70
2022/10/06 12:09:29;;;;;;;49.10;43.90;;;26.20;51.30;;;;;;5040030;28;20044;-70
2022/10/06 12:12:01;;;;;;;18.00;10.18;;;26.40;52.10;;;;;;5034478;28;20041;-70
2022/10/06 12:14:27;;;;;;;7.80;2.85;;;26.60;51.70;;;;;;5038088;28;20041;-71
2022/10/06 12:16:58;;;;;;;5.50;2.38;;;26.70;50.80;;;;;;5035391;28;20132;-70
2022/10/06 12:19:31;;;;;;;5.22;1.00;;;26.50;49.60;;;;;;5033244;28;20463;-71
2022/10/06 12:22:07;;;;;;;5.00;0.77;;;26.40;50.90;;;;;;5040412;28;20784;-70
2022/10/06 12:25:20;;;;;;;3.97;0.57;;;26.30;50.70;;;;;;5041012;28;20287;-70
2022/10/06 12:28:13;;;;;;;4.57;0.70;;;26.30;51.10;;;;;;5028885;28;20045;-71
2022/10/06 12:31:04;;;;;;;4.03;0.80;;;26.30;50.30;;;;;;5036337;28;20084;-69
2022/10/06 12:33:49;;;;;;;5.22;0.70;;;25.30;50.20;;;;;;5038950;28;20049;-69
2022/10/06 12:36:19;;;;;;;6.75;1.08;;;23.60;53.00;;;;;;5040763;28;20052;-69
2022/10/06 12:39:05;;;;;;;6.60;0.80;;;22.40;55.70;;;;;;5037489;28;20106;-69
2022/10/06 12:41:59;;;;;;;6.75;0.98;;;21.50;57.50;;;;;;5024891;28;20056;-69
2022/10/06 12:44:39;;;;;;;7.60;0.70;;;21.00;59.70;;;;;;5025137;28;20153;-70
2022/10/06 12:47:20;;;;;;;4.00;0.77;;;21.90;57.70;;;;;;5035582;28;20033;-70
2022/10/06 12:50:05;;;;;;;6.93;0.90;;;22.90;56.90;;;;;;5035681;28;20053;-69
2022/10/06 12:52:46;;;;;;;;;;;23.50;54.20;;;;;;5036859;28;20068;-69
2022/10/06 12:55:36;;;;;;;3.45;0.60;;;23.90;53.10;;;;;;5037789;28;20337;-70
2022/10/06 12:58:02;;;;;;;4.63;0.65;;;24.20;52.40;;;;;;5029865;28;20071;-70
2022/10/06 13:00:41;;;;;;;4.93;0.90;;;24.70;52.60;;;;;;5046977;28;20374;-70
2022/10/06 13:03:23;;;;;;;5.43;1.88;;;25.10;52.30;;;;;;5037414;28;20057;-69
2022/10/06 13:05:59;;;;;;;5.85;0.88;;;25.30;50.50;;;;;;5039573;28;20536;-69
2022/10/06 13:08:34;;;;;;;8.82;2.80;;;25.20;51.10;;;;;;5036233;28;20100;-69
2022/10/06 13:11:22;;;;;;;5.25;0.88;;;25.20;50.60;;;;;;5044144;28;20512;-71
2022/10/06 13:13:53;;;;;;;6.82;1.25;;;24.90;50.80;;;;;;5024585;28;20096;-70
2022/10/06 13:16:23;;;;;;;4.47;0.93;;;24.80;51.90;;;;;;5037172;28;20060;-70
2022/10/06 13:18:53;;;;;;;6.20;0.85;;;24.90;51.70;;;;;;5039700;28;20370;-69